Neuburg — 5BQJ2 — position and weather

sailwx.info

Track history (hours):
 
Tides and Currents Weather Stations Pressure Air Temp Water Temp Dewpoint Dewpoint Depression Visibility Wind Speed Wind Dir Waves Ship Positions

Neuburg

Last reported at 2017-May-24 05:49 UTC. Time now 2017-May-24 07:58 UTC.
Position N 41°21' E 002°10'.

Length 142 m; draft 6.2 m.

Type: Cargo ship. MMSI: 212740000.

Date/timePositionNaut miles runAvg speedWind from/ knotsBaromVisibWave heightAir tempDewpointWater temp
2017-May-24 05:49N 41°21' E 002°10'0 0.0
2017-May-24 05:25N 41°21' E 002°10'0 0.0
2017-May-24 04:59N 41°21' E 002°10'0 0.0
2017-May-24 04:30N 41°21' E 002°10'0 0.0
2017-May-24 04:01N 41°21' E 002°10'0 0.0
2017-May-24 03:30N 41°21' E 002°10'0 0.0
2017-May-24 03:00N 41°21' E 002°10'2 4.1
2017-May-24 02:30N 41°19' E 002°10'1212.0
2017-May-24 01:30N 41°09' E 002°01'714.5
2017-May-24 01:00N 41°06' E 001°53'814.9
2017-May-24 00:30N 41°04' E 001°43'715.0
2017-May-24 00:00N 41°03' E 001°33'1114.9
2017-May-23 23:17N 41°02' E 001°19'6 2.0
2017-May-23 20:09N 41°06' E 001°13'0 0.0
2017-May-23 18:03N 41°06' E 001°13'0 0.0
2017-May-23 17:45N 41°06' E 001°13'0 0.0
2017-May-23 17:30N 41°06' E 001°13'1 1.2
2017-May-23 17:00N 41°05' E 001°13'2 2.9
2017-May-23 16:26N 41°03' E 001°13'1 1.7
2017-May-23 16:00N 41°03' E 001°12'713.1
2017-May-23 15:29N 40°56' E 001°11'1216.3
2017-May-23 14:44N 40°44' E 001°08'416.4
2017-May-23 14:30N 40°40' E 001°07'1616.0
2017-May-23 13:30N 40°25' E 001°02'816.1
2017-May-23 13:00N 40°17' E 000°60'816.4
2017-May-23 12:30N 40°09' E 000°58'815.9
2017-May-23 12:00N 40°01' E 000°55'122 8.4
2017-May-22 21:35N 38°18' W 000°29'1 7.1
2017-May-22 21:30N 38°18' W 000°28'1214.0
2017-May-22 20:41N 38°07' W 000°25'315.3
2017-May-22 20:28N 38°03' W 000°26'715.6
2017-May-22 20:00N 37°56' W 000°27'1015.9
2017-May-22 19:21N 37°46' W 000°29'615.9
2017-May-22 19:00N 37°41' W 000°30'815.3
2017-May-22 18:31N 37°33' W 000°32'815.2
2017-May-22 17:59N 37°28' W 000°39'714.8
2017-May-22 17:30N 37°23' W 000°46'715.1
2017-May-22 17:01N 37°18' W 000°53'2714.6
2017-May-22 15:11N 37°01' W 001°18'18714.9
2017-May-22 02:37N 36°01' W 004°59'415.3
2017-May-22 02:20N 36°00' W 005°04'515.5
2017-May-22 02:00N 35°60' W 005°10'815.5
2017-May-22 01:31N 35°59' W 005°20'816.0
2017-May-22 01:00N 35°57' W 005°29'68014.8
2017-May-20 03:02N 28°43' W 015°49'012.6
2017-May-20 03:00N 28°43' W 015°49'612.7
2017-May-20 02:30N 28°39' W 015°54'713.1
2017-May-20 02:00N 28°35' W 016°00'712.9
2017-May-20 01:29N 28°30' W 016°06'713.7
2017-May-20 01:00N 28°29' W 016°13'1 0.1
2017-May-19 18:35N 28°29' W 016°13'0 0.3
2017-May-19 18:28N 28°29' W 016°13'1 2.6
2017-May-19 18:00N 28°28' W 016°13'5 9.4
2017-May-19 17:30N 28°29' W 016°07'714.0
2017-May-19 17:00N 28°31' W 015°60'713.9
2017-May-19 16:30N 28°33' W 015°52'612.3
2017-May-19 16:01N 28°30' W 015°46'612.6
2017-May-19 15:30N 28°25' W 015°41'613.0
2017-May-19 15:00N 28°21' W 015°36'1313.4
2017-May-19 14:00N 28°12' W 015°24'510.3
2017-May-19 13:30N 28°07' W 015°25'1 1.2
2017-May-19 12:50N 28°08' W 015°25'0 0.0
2017-May-19 12:23N 28°08' W 015°25'0 0.0
2017-May-19 11:53N 28°08' W 015°25'0 0.0
2017-May-19 11:23N 28°08' W 015°25'0 0.0
2017-May-19 10:53N 28°08' W 015°25'0 0.0
2017-May-19 10:23N 28°08' W 015°25'0 0.0
2017-May-19 09:53N 28°08' W 015°25'0 0.0
2017-May-19 09:23N 28°08' W 015°25'0 0.0
2017-May-19 08:53N 28°08' W 015°25'0 0.0
2017-May-19 08:26N 28°08' W 015°25'0 0.0
2017-May-19 07:56N 28°08' W 015°25'0 0.0
2017-May-19 07:26N 28°08' W 015°25'0 0.0
2017-May-19 06:56N 28°08' W 015°25'0 0.0
2017-May-19 06:26N 28°08' W 015°25'0 0.0
2017-May-19 05:56N 28°08' W 015°25'0 0.0
2017-May-19 05:26N 28°08' W 015°25'0 0.0
2017-May-19 04:56N 28°08' W 015°25'0 0.0
2017-May-19 04:26N 28°08' W 015°25'0 0.0
2017-May-19 03:44N 28°08' W 015°25'0 0.0
2017-May-19 03:29N 28°08' W 015°25'0 0.0
2017-May-19 02:59N 28°08' W 015°25'0 0.0
2017-May-19 02:29N 28°08' W 015°25'0 0.0
2017-May-19 01:59N 28°08' W 015°25'0 0.0
2017-May-19 01:29N 28°08' W 015°25'0 0.0
2017-May-19 00:59N 28°08' W 015°25'0 0.0
2017-May-19 00:29N 28°08' W 015°25'0 0.0
2017-May-18 23:59N 28°08' W 015°25'0 0.0
2017-May-18 23:29N 28°08' W 015°25'0 0.0
2017-May-18 22:59N 28°08' W 015°25'0 0.0
2017-May-18 22:29N 28°08' W 015°25'0 0.0
2017-May-18 21:59N 28°08' W 015°25'0 0.0
2017-May-18 21:29N 28°08' W 015°25'0 0.0
2017-May-18 20:58N 28°08' W 015°25'1 1.2
2017-May-18 20:30N 28°07' W 015°25'510.0
2017-May-18 20:01N 28°09' W 015°20'815.1
2017-May-18 19:31N 28°13' W 015°12'815.8
2017-May-18 19:00N 28°17' W 015°05'815.8
2017-May-18 18:30N 28°21' W 014°57'815.8
2017-May-18 18:00N 28°24' W 014°49'815.8
2017-May-18 17:31N 28°28' W 014°41'815.8
2017-May-18 17:00N 28°31' W 014°33'60 5.8
2017-May-18 06:38N 28°58' W 013°32'0 0.1
2017-May-18 06:29N 28°58' W 013°32'1 2.5
2017-May-18 06:00N 28°57' W 013°32'714.5
2017-May-18 05:30N 28°53' W 013°39'815.7
2017-May-18 05:00N 28°49' W 013°47'815.2
2017-May-18 04:30N 28°47' W 013°55'714.1
2017-May-18 04:00N 28°46' W 014°03'714.2
2017-May-18 03:30N 28°42' W 014°10'714.3
2017-May-18 03:00N 28°39' W 014°18'714.2
2017-May-18 02:29N 28°35' W 014°25'714.3
2017-May-18 01:58N 28°32' W 014°32'714.4
2017-May-18 01:30N 28°29' W 014°39'714.2
2017-May-18 01:00N 28°26' W 014°46'714.4
2017-May-18 00:30N 28°22' W 014°53'714.4
2017-May-18 00:00N 28°19' W 015°01'714.7
2017-May-17 23:30N 28°15' W 015°08'815.1
2017-May-17 23:00N 28°11' W 015°15'815.3
2017-May-17 22:30N 28°08' W 015°23'2 3.4
2017-May-17 21:57N 28°08' W 015°25'0 0.0
2017-May-17 21:27N 28°08' W 015°25'0 0.0
2017-May-17 20:57N 28°08' W 015°25'0 0.0
2017-May-17 20:27N 28°08' W 015°25'0 0.0
2017-May-17 19:57N 28°08' W 015°25'0 0.0
2017-May-17 19:27N 28°08' W 015°25'0 0.0
2017-May-17 19:00N 28°08' W 015°25'0 0.0
2017-May-17 18:30N 28°08' W 015°25'0 0.0
2017-May-17 18:00N 28°08' W 015°25'0 0.0
2017-May-17 17:30N 28°08' W 015°25'0 0.0
2017-May-17 17:00N 28°08' W 015°25'0 0.0
2017-May-17 16:30N 28°08' W 015°25'2 4.0
2017-May-17 16:00N 28°08' W 015°23'612.9
2017-May-17 15:30N 28°13' W 015°27'815.6
2017-May-17 15:01N 28°16' W 015°36'1515.2
2017-May-17 14:01N 28°20' W 015°52'815.2
2017-May-17 13:30N 28°23' W 016°00'815.2
2017-May-17 12:59N 28°26' W 016°09'510.7
2017-May-17 12:29N 28°29' W 016°14'0 0.0
2017-May-17 05:25N 28°29' W 016°13'1 2.2
2017-May-17 04:57N 28°28' W 016°13'713.6
2017-May-17 04:28N 28°31' W 016°06'815.5
2017-May-17 03:59N 28°35' W 015°59'815.4
2017-May-17 03:29N 28°40' W 015°53'815.6
2017-May-17 03:00N 28°45' W 015°46'915.6
2017-May-17 02:26N 28°51' W 015°39'715.5
2017-May-17 02:00N 28°55' W 015°33'815.2
2017-May-17 01:30N 29°00' W 015°26'715.1
2017-May-17 01:00N 29°05' W 015°20'815.2
2017-May-17 00:30N 29°10' W 015°13'815.4
2017-May-17 00:00N 29°15' W 015°06'815.6
2017-May-16 23:30N 29°20' W 014°59'815.7
2017-May-16 23:00N 29°25' W 014°52'815.8
2017-May-16 22:30N 29°30' W 014°46'815.4
2017-May-16 22:00N 29°35' W 014°39'815.5
2017-May-16 21:30N 29°40' W 014°32'815.7
2017-May-16 21:00N 29°45' W 014°25'815.6
2017-May-16 20:30N 29°50' W 014°18'815.5
2017-May-16 20:00N 29°55' W 014°11'815.8
2017-May-16 19:30N 30°00' W 014°04'815.6
2017-May-16 19:00N 30°05' W 013°58'815.5
2017-May-16 18:31N 30°10' W 013°51'915.3
2017-May-16 17:56N 30°16' W 013°43'715.2
2017-May-16 17:30N 30°21' W 013°38'815.0
2017-May-16 16:59N 30°26' W 013°31'915.2
2017-May-16 16:25N 30°31' W 013°23'615.1
2017-May-16 15:59N 30°36' W 013°17'1115.4
2017-May-16 15:14N 30°43' W 013°07'415.7
2017-May-16 15:00N 30°46' W 013°04'815.4
2017-May-16 14:31N 30°51' W 012°58'1614.9
2017-May-16 13:27N 31°02' W 012°44'814.7
2017-May-16 12:53N 31°07' W 012°37'614.9
2017-May-16 12:30N 31°11' W 012°32'714.9
2017-May-16 12:00N 31°16' W 012°26'2015.5
2017-May-16 10:44N 31°28' W 012°08'1315.6
2017-May-16 09:55N 31°37' W 011°56'815.6
2017-May-16 09:23N 31°42' W 011°49'715.5
2017-May-16 08:58N 31°46' W 011°43'2315.5
2017-May-16 07:29N 32°02' W 011°23'715.4
2017-May-16 07:00N 32°07' W 011°17'4714.7
2017-May-16 03:47N 32°37' W 010°34'714.8
2017-May-16 03:17N 32°42' W 010°27'414.8
2017-May-16 03:00N 32°45' W 010°24'2615.0
2017-May-16 01:18N 33°01' W 010°00'715.5
2017-May-16 00:49N 33°06' W 009°53'515.4
2017-May-16 00:30N 33°09' W 009°49'1915.3
2017-May-15 23:17N 33°21' W 009°32'5214.7
2017-May-15 19:45N 33°55' W 008°45'714.4
2017-May-15 19:16N 33°60' W 008°38'5014.4
2017-May-15 15:48N 34°33' W 007°53'1614.7
2017-May-15 14:43N 34°43' W 007°39'314.7
2017-May-15 14:30N 34°45' W 007°36'1714.7
2017-May-15 13:19N 34°56' W 007°19'814.5
2017-May-15 12:44N 35°01' W 007°11'1114.6
2017-May-15 11:58N 35°09' W 007°01'31414.5
2017-May-14 14:20N 37°14' W 001°04'1515.8
2017-May-14 13:22N 37°24' W 000°49'615.6
2017-May-14 13:00N 37°28' W 000°44'815.4
2017-May-14 12:30N 37°33' W 000°36'714.4
2017-May-14 12:00N 37°39' W 000°32'815.3
2017-May-14 11:30N 37°46' W 000°30'815.0
2017-May-14 11:00N 37°54' W 000°28'815.1
2017-May-14 10:30N 38°01' W 000°26'  
Track history (hours):
 
Tides and Currents Weather Stations Pressure Air Temp Water Temp Dewpoint Dewpoint Depression Visibility Wind Speed Wind Dir Waves Ship Positions

Neuburg

Last reported at 2017-May-24 05:49 UTC. Time now 2017-May-24 07:58 UTC.
Position N 41°21' E 002°10'.

Length 142 m; draft 6.2 m.

Type: Cargo ship. MMSI: 212740000.

Date/timePositionNaut miles runAvg speedWind from/ knotsBaromVisibWave heightAir tempDewpointWater temp
2017-May-24 05:49N 41°21' E 002°10'0 0.0
2017-May-24 05:25N 41°21' E 002°10'0 0.0
2017-May-24 04:59N 41°21' E 002°10'0 0.0
2017-May-24 04:30N 41°21' E 002°10'0 0.0
2017-May-24 04:01N 41°21' E 002°10'0 0.0
2017-May-24 03:30N 41°21' E 002°10'0 0.0
2017-May-24 03:00N 41°21' E 002°10'2 4.1
2017-May-24 02:30N 41°19' E 002°10'1212.0
2017-May-24 01:30N 41°09' E 002°01'714.5
2017-May-24 01:00N 41°06' E 001°53'814.9
2017-May-24 00:30N 41°04' E 001°43'715.0
2017-May-24 00:00N 41°03' E 001°33'1114.9
2017-May-23 23:17N 41°02' E 001°19'6 2.0
2017-May-23 20:09N 41°06' E 001°13'0 0.0
2017-May-23 18:03N 41°06' E 001°13'0 0.0
2017-May-23 17:45N 41°06' E 001°13'0 0.0
2017-May-23 17:30N 41°06' E 001°13'1 1.2
2017-May-23 17:00N 41°05' E 001°13'2 2.9
2017-May-23 16:26N 41°03' E 001°13'1 1.7
2017-May-23 16:00N 41°03' E 001°12'713.1
2017-May-23 15:29N 40°56' E 001°11'1216.3
2017-May-23 14:44N 40°44' E 001°08'416.4
2017-May-23 14:30N 40°40' E 001°07'1616.0
2017-May-23 13:30N 40°25' E 001°02'816.1
2017-May-23 13:00N 40°17' E 000°60'816.4
2017-May-23 12:30N 40°09' E 000°58'815.9
2017-May-23 12:00N 40°01' E 000°55'122 8.4
2017-May-22 21:35N 38°18' W 000°29'1 7.1
2017-May-22 21:30N 38°18' W 000°28'1214.0
2017-May-22 20:41N 38°07' W 000°25'315.3
2017-May-22 20:28N 38°03' W 000°26'715.6
2017-May-22 20:00N 37°56' W 000°27'1015.9
2017-May-22 19:21N 37°46' W 000°29'615.9
2017-May-22 19:00N 37°41' W 000°30'815.3
2017-May-22 18:31N 37°33' W 000°32'815.2
2017-May-22 17:59N 37°28' W 000°39'714.8
2017-May-22 17:30N 37°23' W 000°46'715.1
2017-May-22 17:01N 37°18' W 000°53'2714.6
2017-May-22 15:11N 37°01' W 001°18'18714.9
2017-May-22 02:37N 36°01' W 004°59'415.3
2017-May-22 02:20N 36°00' W 005°04'515.5
2017-May-22 02:00N 35°60' W 005°10'815.5
2017-May-22 01:31N 35°59' W 005°20'816.0
2017-May-22 01:00N 35°57' W 005°29'68014.8
2017-May-20 03:02N 28°43' W 015°49'012.6
2017-May-20 03:00N 28°43' W 015°49'612.7
2017-May-20 02:30N 28°39' W 015°54'713.1
2017-May-20 02:00N 28°35' W 016°00'712.9
2017-May-20 01:29N 28°30' W 016°06'713.7
2017-May-20 01:00N 28°29' W 016°13'1 0.1
2017-May-19 18:35N 28°29' W 016°13'0 0.3
2017-May-19 18:28N 28°29' W 016°13'1 2.6
2017-May-19 18:00N 28°28' W 016°13'5 9.4
2017-May-19 17:30N 28°29' W 016°07'714.0
2017-May-19 17:00N 28°31' W 015°60'713.9
2017-May-19 16:30N 28°33' W 015°52'612.3
2017-May-19 16:01N 28°30' W 015°46'612.6
2017-May-19 15:30N 28°25' W 015°41'613.0
2017-May-19 15:00N 28°21' W 015°36'1313.4
2017-May-19 14:00N 28°12' W 015°24'510.3
2017-May-19 13:30N 28°07' W 015°25'1 1.2
2017-May-19 12:50N 28°08' W 015°25'0 0.0
2017-May-19 12:23N 28°08' W 015°25'0 0.0
2017-May-19 11:53N 28°08' W 015°25'0 0.0
2017-May-19 11:23N 28°08' W 015°25'0 0.0
2017-May-19 10:53N 28°08' W 015°25'0 0.0
2017-May-19 10:23N 28°08' W 015°25'0 0.0
2017-May-19 09:53N 28°08' W 015°25'0 0.0
2017-May-19 09:23N 28°08' W 015°25'0 0.0
2017-May-19 08:53N 28°08' W 015°25'0 0.0
2017-May-19 08:26N 28°08' W 015°25'0 0.0
2017-May-19 07:56N 28°08' W 015°25'0 0.0
2017-May-19 07:26N 28°08' W 015°25'0 0.0
2017-May-19 06:56N 28°08' W 015°25'0 0.0
2017-May-19 06:26N 28°08' W 015°25'0 0.0
2017-May-19 05:56N 28°08' W 015°25'0 0.0
2017-May-19 05:26N 28°08' W 015°25'0 0.0
2017-May-19 04:56N 28°08' W 015°25'0 0.0
2017-May-19 04:26N 28°08' W 015°25'0 0.0
2017-May-19 03:44N 28°08' W 015°25'0 0.0
2017-May-19 03:29N 28°08' W 015°25'0 0.0
2017-May-19 02:59N 28°08' W 015°25'0 0.0
2017-May-19 02:29N 28°08' W 015°25'0 0.0
2017-May-19 01:59N 28°08' W 015°25'0 0.0
2017-May-19 01:29N 28°08' W 015°25'0 0.0
2017-May-19 00:59N 28°08' W 015°25'0 0.0
2017-May-19 00:29N 28°08' W 015°25'0 0.0
2017-May-18 23:59N 28°08' W 015°25'0 0.0
2017-May-18 23:29N 28°08' W 015°25'0 0.0
2017-May-18 22:59N 28°08' W 015°25'0 0.0
2017-May-18 22:29N 28°08' W 015°25'0 0.0
2017-May-18 21:59N 28°08' W 015°25'0 0.0
2017-May-18 21:29N 28°08' W 015°25'0 0.0
2017-May-18 20:58N 28°08' W 015°25'1 1.2
2017-May-18 20:30N 28°07' W 015°25'510.0
2017-May-18 20:01N 28°09' W 015°20'815.1
2017-May-18 19:31N 28°13' W 015°12'815.8
2017-May-18 19:00N 28°17' W 015°05'815.8
2017-May-18 18:30N 28°21' W 014°57'815.8
2017-May-18 18:00N 28°24' W 014°49'815.8
2017-May-18 17:31N 28°28' W 014°41'815.8
2017-May-18 17:00N 28°31' W 014°33'60 5.8
2017-May-18 06:38N 28°58' W 013°32'0 0.1
2017-May-18 06:29N 28°58' W 013°32'1 2.5
2017-May-18 06:00N 28°57' W 013°32'714.5
2017-May-18 05:30N 28°53' W 013°39'815.7
2017-May-18 05:00N 28°49' W 013°47'815.2
2017-May-18 04:30N 28°47' W 013°55'714.1
2017-May-18 04:00N 28°46' W 014°03'714.2
2017-May-18 03:30N 28°42' W 014°10'714.3
2017-May-18 03:00N 28°39' W 014°18'714.2
2017-May-18 02:29N 28°35' W 014°25'714.3
2017-May-18 01:58N 28°32' W 014°32'714.4
2017-May-18 01:30N 28°29' W 014°39'714.2
2017-May-18 01:00N 28°26' W 014°46'714.4
2017-May-18 00:30N 28°22' W 014°53'714.4
2017-May-18 00:00N 28°19' W 015°01'714.7
2017-May-17 23:30N 28°15' W 015°08'815.1
2017-May-17 23:00N 28°11' W 015°15'815.3
2017-May-17 22:30N 28°08' W 015°23'2 3.4
2017-May-17 21:57N 28°08' W 015°25'0 0.0
2017-May-17 21:27N 28°08' W 015°25'0 0.0
2017-May-17 20:57N 28°08' W 015°25'0 0.0
2017-May-17 20:27N 28°08' W 015°25'0 0.0
2017-May-17 19:57N 28°08' W 015°25'0 0.0
2017-May-17 19:27N 28°08' W 015°25'0 0.0
2017-May-17 19:00N 28°08' W 015°25'0 0.0
2017-May-17 18:30N 28°08' W 015°25'0 0.0
2017-May-17 18:00N 28°08' W 015°25'0 0.0
2017-May-17 17:30N 28°08' W 015°25'0 0.0
2017-May-17 17:00N 28°08' W 015°25'0 0.0
2017-May-17 16:30N 28°08' W 015°25'2 4.0
2017-May-17 16:00N 28°08' W 015°23'612.9
2017-May-17 15:30N 28°13' W 015°27'815.6
2017-May-17 15:01N 28°16' W 015°36'1515.2
2017-May-17 14:01N 28°20' W 015°52'815.2
2017-May-17 13:30N 28°23' W 016°00'815.2
2017-May-17 12:59N 28°26' W 016°09'510.7
2017-May-17 12:29N 28°29' W 016°14'0 0.0
2017-May-17 05:25N 28°29' W 016°13'1 2.2
2017-May-17 04:57N 28°28' W 016°13'713.6
2017-May-17 04:28N 28°31' W 016°06'815.5
2017-May-17 03:59N 28°35' W 015°59'815.4
2017-May-17 03:29N 28°40' W 015°53'815.6
2017-May-17 03:00N 28°45' W 015°46'915.6
2017-May-17 02:26N 28°51' W 015°39'715.5
2017-May-17 02:00N 28°55' W 015°33'815.2
2017-May-17 01:30N 29°00' W 015°26'715.1
2017-May-17 01:00N 29°05' W 015°20'815.2
2017-May-17 00:30N 29°10' W 015°13'815.4
2017-May-17 00:00N 29°15' W 015°06'815.6
2017-May-16 23:30N 29°20' W 014°59'815.7
2017-May-16 23:00N 29°25' W 014°52'815.8
2017-May-16 22:30N 29°30' W 014°46'815.4
2017-May-16 22:00N 29°35' W 014°39'815.5
2017-May-16 21:30N 29°40' W 014°32'815.7
2017-May-16 21:00N 29°45' W 014°25'815.6
2017-May-16 20:30N 29°50' W 014°18'815.5
2017-May-16 20:00N 29°55' W 014°11'815.8
2017-May-16 19:30N 30°00' W 014°04'815.6
2017-May-16 19:00N 30°05' W 013°58'815.5
2017-May-16 18:31N 30°10' W 013°51'915.3
2017-May-16 17:56N 30°16' W 013°43'715.2
2017-May-16 17:30N 30°21' W 013°38'815.0
2017-May-16 16:59N 30°26' W 013°31'915.2
2017-May-16 16:25N 30°31' W 013°23'615.1
2017-May-16 15:59N 30°36' W 013°17'1115.4
2017-May-16 15:14N 30°43' W 013°07'415.7
2017-May-16 15:00N 30°46' W 013°04'815.4
2017-May-16 14:31N 30°51' W 012°58'1614.9
2017-May-16 13:27N 31°02' W 012°44'814.7
2017-May-16 12:53N 31°07' W 012°37'614.9
2017-May-16 12:30N 31°11' W 012°32'714.9
2017-May-16 12:00N 31°16' W 012°26'2015.5
2017-May-16 10:44N 31°28' W 012°08'1315.6
2017-May-16 09:55N 31°37' W 011°56'815.6
2017-May-16 09:23N 31°42' W 011°49'715.5
2017-May-16 08:58N 31°46' W 011°43'2315.5
2017-May-16 07:29N 32°02' W 011°23'715.4
2017-May-16 07:00N 32°07' W 011°17'4714.7
2017-May-16 03:47N 32°37' W 010°34'714.8
2017-May-16 03:17N 32°42' W 010°27'414.8
2017-May-16 03:00N 32°45' W 010°24'2615.0
2017-May-16 01:18N 33°01' W 010°00'715.5
2017-May-16 00:49N 33°06' W 009°53'515.4
2017-May-16 00:30N 33°09' W 009°49'1915.3
2017-May-15 23:17N 33°21' W 009°32'5214.7
2017-May-15 19:45N 33°55' W 008°45'714.4
2017-May-15 19:16N 33°60' W 008°38'5014.4
2017-May-15 15:48N 34°33' W 007°53'1614.7
2017-May-15 14:43N 34°43' W 007°39'314.7
2017-May-15 14:30N 34°45' W 007°36'1714.7
2017-May-15 13:19N 34°56' W 007°19'814.5
2017-May-15 12:44N 35°01' W 007°11'1114.6
2017-May-15 11:58N 35°09' W 007°01'31414.5
2017-May-14 14:20N 37°14' W 001°04'1515.8
2017-May-14 13:22N 37°24' W 000°49'615.6
2017-May-14 13:00N 37°28' W 000°44'815.4
2017-May-14 12:30N 37°33' W 000°36'714.4
2017-May-14 12:00N 37°39' W 000°32'815.3
2017-May-14 11:30N 37°46' W 000°30'815.0
2017-May-14 11:00N 37°54' W 000°28'815.1
2017-May-14 10:30N 38°01' W 000°26'  

Dump ship's entire track history